createdAt,value
2019-04-01T00:00:56.218Z,81.53
2019-04-01T00:03:22.942Z,81.45
2019-04-01T00:05:49.698Z,82.77
2019-04-01T00:08:16.423Z,82.56
2019-04-01T00:10:43.170Z,82.39
2019-04-01T00:13:09.906Z,82.76
2019-04-01T00:15:36.666Z,83.06
2019-04-01T00:18:03.411Z,82.57
2019-04-01T00:20:30.159Z,83.06
2019-04-01T00:22:57.006Z,84.28
2019-04-01T00:25:23.653Z,83.94
2019-04-01T00:27:50.414Z,84.50
2019-04-01T00:30:17.177Z,84.64
2019-04-01T00:32:43.942Z,84.80
2019-04-01T00:35:10.726Z,85.46
2019-04-01T00:37:37.453Z,84.31
2019-04-01T00:40:04.370Z,84.93
2019-04-01T00:42:42.904Z,84.91
2019-04-01T00:45:10.539Z,84.92
2019-04-01T00:47:37.312Z,84.53
2019-04-01T00:50:04.190Z,84.99
2019-04-01T00:52:30.935Z,85.06
2019-04-01T00:54:57.690Z,84.91
2019-04-01T00:57:24.438Z,83.87
2019-04-01T00:59:51.167Z,84.06
2019-04-01T01:02:17.914Z,84.44
2019-04-01T01:04:44.651Z,84.19
2019-04-01T01:07:11.429Z,84.78
2019-04-01T01:09:38.137Z,84.72
2019-04-01T01:12:04.884Z,84.79
2019-04-01T01:14:31.610Z,84.64
2019-04-01T01:16:58.349Z,85.13
2019-04-01T01:19:25.091Z,84.90
2019-04-01T01:21:51.831Z,85.21
2019-04-01T01:24:18.566Z,85.79
2019-04-01T01:26:45.310Z,85.88
2019-04-01T01:29:12.045Z,86.13
2019-04-01T01:31:38.795Z,86.19
2019-04-01T01:34:05.627Z,85.75
2019-04-01T01:36:32.642Z,86.09
2019-04-01T01:38:59.358Z,86.27
2019-04-01T01:41:26.112Z,86.38
2019-04-01T01:43:53.028Z,86.23
2019-04-01T01:46:19.774Z,86.77
2019-04-01T01:48:46.525Z,86.13
2019-04-01T01:51:13.299Z,86.79
2019-04-01T01:53:41.587Z,87.23
2019-04-01T01:56:06.783Z,86.90
2019-04-01T01:58:33.547Z,87.54
2019-04-01T02:01:00.422Z,88.07
2019-04-01T02:03:27.172Z,87.53
2019-04-01T02:05:53.910Z,88.16
2019-04-01T02:08:20.670Z,87.53
2019-04-01T02:10:47.406Z,88.19
2019-04-01T02:13:14.153Z,88.14
2019-04-01T02:15:40.895Z,88.46
2019-04-01T02:18:07.650Z,88.41
2019-04-01T02:20:34.417Z,88.49
2019-04-01T02:23:01.158Z,88.45
2019-04-01T02:25:27.946Z,88.75
2019-04-01T02:27:54.694Z,89.30
2019-04-01T02:30:21.459Z,89.00
2019-04-01T02:32:48.207Z,89.39
2019-04-01T02:35:14.930Z,89.67
2019-04-01T02:37:41.688Z,89.47
2019-04-01T02:40:08.430Z,88.89
2019-04-01T02:42:35.193Z,89.38
2019-04-01T02:45:01.935Z,89.56
2019-04-01T02:47:28.679Z,90.24
2019-04-01T02:49:55.401Z,90.35
2019-04-01T02:52:22.153Z,89.96
2019-04-01T02:54:48.871Z,89.56
2019-04-01T02:57:15.618Z,90.40
2019-04-01T02:59:42.363Z,89.69
2019-04-01T03:02:09.094Z,89.45
2019-04-01T03:04:35.869Z,89.54
2019-04-01T03:07:02.597Z,90.15
2019-04-01T03:09:29.358Z,89.54
2019-04-01T03:11:56.083Z,89.76
2019-04-01T03:14:22.864Z,89.90
2019-04-01T03:16:49.606Z,90.98
2019-04-01T03:19:16.366Z,91.59
2019-04-01T03:21:43.096Z,91.10
2019-04-01T03:24:09.857Z,90.76
2019-04-01T03:26:36.585Z,90.49
2019-04-01T03:29:03.334Z,91.08
2019-04-01T03:31:30.135Z,91.72
2019-04-01T03:33:56.980Z,90.89
2019-04-01T03:36:23.705Z,91.74
2019-04-01T03:38:50.452Z,92.13
2019-04-01T03:41:17.344Z,91.56
2019-04-01T03:43:43.946Z,91.58
2019-04-01T03:46:10.716Z,91.85
2019-04-01T03:48:37.457Z,91.26
2019-04-01T03:51:04.196Z,90.77
2019-04-01T03:53:30.946Z,91.14
2019-04-01T03:55:57.675Z,91.87
2019-04-01T03:58:24.424Z,91.98
2019-04-01T04:00:51.216Z,91.67
2019-04-01T04:03:17.963Z,91.87
2019-04-01T04:05:44.682Z,92.45
2019-04-01T04:08:11.431Z,91.88
2019-04-01T04:10:38.168Z,92.08
2019-04-01T04:13:04.892Z,92.09
2019-04-01T04:15:31.652Z,91.73
2019-04-01T04:17:58.415Z,92.14
2019-04-01T04:20:25.169Z,91.72
2019-04-01T04:22:52.300Z,92.04
2019-04-01T04:25:19.031Z,92.12
2019-04-01T04:27:45.782Z,91.75
2019-04-01T04:30:16.366Z,92.18
2019-04-01T04:32:43.099Z,92.83
2019-04-01T04:35:09.847Z,92.75
2019-04-01T04:37:36.590Z,92.99
2019-04-01T04:40:04.046Z,93.47
2019-04-01T04:42:30.797Z,92.86
2019-04-01T04:44:57.756Z,93.88
2019-04-01T04:47:24.402Z,93.60
2019-04-01T04:49:51.169Z,92.84
2019-04-01T04:52:17.898Z,92.70
2019-04-01T04:54:44.709Z,92.49
2019-04-01T04:57:11.426Z,92.75
2019-04-01T04:59:38.203Z,92.72
2019-04-01T05:02:04.935Z,93.12
2019-04-01T05:04:31.695Z,93.18
2019-04-01T05:06:58.455Z,93.86
2019-04-01T05:09:25.278Z,93.71
2019-04-01T05:11:52.180Z,93.68
2019-04-01T05:14:18.930Z,93.22
2019-04-01T05:16:45.669Z,93.38
2019-04-01T05:19:12.442Z,93.37
2019-04-01T05:21:39.172Z,93.47
2019-04-01T05:24:05.890Z,93.84
2019-04-01T05:26:33.131Z,94.36
2019-04-01T05:28:59.866Z,94.79
2019-04-01T05:31:26.602Z,94.59
2019-04-01T05:33:55.580Z,94.35
2019-04-01T05:36:20.221Z,94.27
2019-04-01T05:38:47.001Z,94.29
2019-04-01T05:41:13.740Z,94.26
2019-04-01T05:43:40.463Z,93.88
2019-04-01T05:46:07.207Z,93.87
2019-04-01T05:48:33.949Z,93.15
2019-04-01T05:51:01.510Z,93.10
2019-04-01T05:53:28.250Z,92.28
2019-04-01T05:55:55.005Z,92.65
2019-04-01T05:58:21.747Z,92.62
2019-04-01T06:00:54.124Z,92.63
2019-04-01T06:03:21.022Z,92.49
2019-04-01T06:05:47.769Z,92.01
2019-04-01T06:08:14.518Z,92.33
2019-04-01T06:10:41.271Z,91.49
2019-04-01T06:13:08.014Z,90.70
2019-04-01T06:15:34.758Z,89.62
2019-04-01T06:18:01.510Z,90.36
2019-04-01T06:20:28.266Z,90.71
2019-04-01T06:22:55.006Z,90.25
2019-04-01T06:25:21.758Z,90.06
2019-04-01T06:27:48.510Z,90.03
2019-04-01T06:30:15.326Z,88.92
2019-04-01T06:32:42.086Z,89.99
2019-04-01T06:35:08.834Z,88.83
2019-04-01T06:37:35.591Z,89.08
2019-04-01T06:40:02.354Z,89.07
2019-04-01T06:42:29.110Z,86.70
2019-04-01T06:44:55.833Z,86.78
2019-04-01T06:47:22.590Z,86.61
2019-04-01T06:49:49.322Z,86.43
2019-04-01T06:52:16.077Z,85.64
2019-04-01T06:54:42.798Z,86.25
2019-04-01T06:57:09.546Z,85.74
2019-04-01T06:59:36.298Z,84.89
2019-04-01T07:02:03.112Z,84.95
2019-04-01T07:04:29.905Z,84.24
2019-04-01T07:06:56.670Z,83.83
2019-04-01T07:09:23.485Z,82.99
2019-04-01T07:11:50.254Z,82.79
2019-04-01T07:14:16.994Z,82.98
2019-04-01T07:16:43.749Z,81.31
2019-04-01T07:19:10.501Z,81.03
2019-04-01T07:21:37.291Z,81.99
2019-04-01T07:24:04.030Z,79.51
2019-04-01T07:26:30.902Z,80.78
2019-04-01T07:28:57.642Z,79.30
2019-04-01T07:31:24.404Z,80.05
2019-04-01T07:33:51.126Z,79.13
2019-04-01T07:36:17.879Z,79.82
2019-04-01T07:38:44.626Z,79.24
2019-04-01T07:41:11.363Z,79.92
2019-04-01T07:43:38.118Z,77.09
2019-04-01T07:46:07.986Z,78.01
2019-04-01T07:48:31.648Z,76.88
2019-04-01T07:50:58.361Z,76.10
2019-04-01T07:53:25.110Z,77.58
2019-04-01T07:55:51.920Z,76.61
2019-04-01T07:58:18.674Z,77.00
2019-04-01T08:00:45.393Z,76.83
2019-04-01T08:03:12.857Z,75.68
2019-04-01T08:05:39.583Z,75.31
2019-04-01T08:08:06.350Z,75.14
2019-04-01T08:10:33.306Z,74.06
2019-04-01T08:13:00.063Z,72.93
2019-04-01T08:15:26.830Z,74.18
2019-04-01T08:17:53.582Z,72.76
2019-04-01T08:20:20.328Z,72.27
2019-04-01T08:22:47.075Z,71.67
2019-04-01T08:25:13.801Z,70.36
2019-04-01T08:27:40.546Z,71.03
2019-04-01T08:30:07.294Z,70.00
2019-04-01T08:32:34.034Z,69.72
2019-04-01T08:35:00.762Z,69.47
2019-04-01T08:37:27.522Z,70.54
2019-04-01T08:39:54.248Z,68.57
2019-04-01T08:42:21.033Z,69.23
2019-04-01T08:44:47.765Z,67.66
2019-04-01T08:47:14.505Z,67.43
2019-04-01T08:49:41.235Z,68.08
2019-04-01T08:52:07.974Z,67.05
2019-04-01T08:54:34.687Z,67.56
2019-04-01T08:57:01.430Z,68.09
2019-04-01T08:59:28.179Z,66.73
2019-04-01T09:01:54.906Z,65.89
2019-04-01T09:04:21.662Z,67.00
2019-04-01T09:06:48.393Z,64.97
2019-04-01T09:09:15.199Z,65.71
2019-04-01T09:11:42.095Z,63.41
2019-04-01T09:14:08.854Z,64.66
2019-04-01T09:16:35.584Z,64.31
2019-04-01T09:19:02.334Z,62.19
2019-04-01T09:21:29.054Z,63.85
2019-04-01T09:23:55.807Z,62.08
2019-04-01T09:26:22.593Z,62.80
2019-04-01T09:28:49.294Z,61.09
2019-04-01T09:31:16.018Z,61.67
2019-04-01T09:33:42.794Z,62.54
2019-04-01T09:36:09.528Z,61.07
2019-04-01T09:38:36.271Z,61.72
2019-04-01T09:41:03.274Z,61.44
2019-04-01T09:43:30.014Z,62.26
2019-04-01T09:45:56.754Z,60.71
2019-04-01T09:48:23.871Z,61.60
2019-04-01T09:50:50.232Z,61.02
2019-04-01T09:53:16.978Z,60.57
2019-04-01T09:55:43.706Z,61.85
2019-04-01T09:58:10.522Z,61.15
2019-04-01T10:00:37.256Z,60.33
2019-04-01T10:03:04.005Z,59.68
2019-04-01T10:05:30.740Z,59.05
2019-04-01T10:07:57.579Z,58.50
2019-04-01T10:10:24.302Z,60.52
2019-04-01T10:12:51.051Z,59.71
2019-04-01T10:15:17.807Z,58.40
2019-04-01T10:17:44.547Z,58.11
2019-04-01T10:20:11.330Z,56.79
2019-04-01T10:22:38.078Z,56.92
2019-04-01T10:25:04.826Z,58.15
2019-04-01T10:27:31.578Z,58.10
2019-04-01T10:29:58.341Z,57.27
2019-04-01T10:32:25.082Z,58.46
2019-04-01T10:34:51.833Z,56.19
2019-04-01T10:37:18.565Z,56.12
2019-04-01T10:39:45.307Z,56.77
2019-04-01T10:42:12.042Z,54.47
2019-04-01T10:44:38.782Z,55.39
2019-04-01T10:47:05.521Z,55.74
2019-04-01T10:49:32.363Z,56.44
2019-04-01T10:51:59.030Z,55.34
2019-04-01T10:54:25.827Z,55.63
2019-04-01T10:56:52.607Z,54.39
2019-04-01T10:59:19.293Z,55.21
2019-04-01T11:01:46.015Z,53.57
2019-04-01T11:04:12.807Z,54.35
2019-04-01T11:06:39.478Z,52.50
2019-04-01T11:09:07.033Z,53.14
2019-04-01T11:11:33.714Z,53.38
2019-04-01T11:14:00.468Z,53.70
2019-04-01T11:16:27.215Z,52.80
2019-04-01T11:18:53.977Z,53.98
2019-04-01T11:21:20.708Z,53.04
2019-04-01T11:23:47.467Z,53.19
2019-04-01T11:26:14.203Z,53.51
2019-04-01T11:28:40.986Z,52.71
2019-04-01T11:31:07.729Z,51.99
2019-04-01T11:33:34.530Z,52.56
2019-04-01T11:36:01.236Z,51.85
2019-04-01T11:38:28.058Z,51.19
2019-04-01T11:40:54.741Z,51.93
2019-04-01T11:43:21.510Z,52.46
2019-04-01T11:45:48.230Z,53.06
2019-04-01T11:48:14.950Z,51.48
2019-04-01T11:50:41.707Z,52.29
2019-04-01T11:53:08.403Z,53.06
2019-04-01T11:55:35.177Z,52.07
2019-04-01T11:58:01.898Z,51.02
2019-04-01T12:00:28.661Z,52.00
2019-04-01T12:02:55.399Z,50.61
2019-04-01T12:05:22.172Z,50.82
2019-04-01T12:07:48.871Z,51.07
2019-04-01T12:10:15.638Z,51.00
2019-04-01T12:12:42.363Z,50.67
2019-04-01T12:15:11.990Z,50.52
2019-04-01T12:17:35.873Z,51.48
2019-04-01T12:20:02.641Z,51.09
2019-04-01T12:22:29.372Z,52.65
2019-04-01T12:24:56.190Z,50.49
2019-04-01T12:27:22.921Z,50.24
2019-04-01T12:29:50.050Z,49.51
2019-04-01T12:32:16.756Z,49.52
2019-04-01T12:34:43.535Z,50.78
2019-04-01T12:37:10.246Z,52.11
2019-04-01T12:39:36.990Z,51.19
2019-04-01T12:42:03.725Z,50.11
2019-04-01T12:44:30.484Z,49.63
2019-04-01T12:46:57.222Z,49.38
2019-04-01T12:49:23.972Z,49.71
2019-04-01T12:51:50.708Z,49.67
2019-04-01T12:54:17.466Z,50.48
2019-04-01T12:56:44.213Z,47.71
2019-04-01T12:59:10.971Z,49.03
2019-04-01T13:01:37.697Z,49.92
2019-04-01T13:04:04.554Z,47.97
2019-04-01T13:06:31.183Z,48.06
2019-04-01T13:08:57.962Z,48.27
2019-04-01T13:11:24.740Z,48.55
2019-04-01T13:13:51.471Z,47.05
2019-04-01T13:16:18.220Z,48.47
2019-04-01T13:18:44.944Z,47.47
2019-04-01T13:21:11.806Z,49.44
2019-04-01T13:23:38.533Z,48.47
2019-04-01T13:26:05.296Z,48.45
2019-04-01T13:28:32.030Z,49.24
2019-04-01T13:30:58.783Z,47.59
2019-04-01T13:33:25.574Z,48.10
2019-04-01T13:35:52.895Z,47.77
2019-04-01T13:38:19.066Z,48.49
2019-04-01T13:40:45.798Z,47.20
2019-04-01T13:43:14.012Z,47.92
2019-04-01T13:45:39.398Z,47.25
2019-04-01T13:48:06.157Z,48.61
2019-04-01T13:50:32.947Z,48.41
2019-04-01T13:52:59.638Z,47.52
2019-04-01T13:55:26.385Z,47.75
2019-04-01T13:57:53.120Z,48.73
2019-04-01T14:00:20.332Z,47.85
2019-04-01T14:02:46.679Z,46.97
2019-04-01T14:05:13.446Z,47.35
2019-04-01T14:07:40.256Z,46.86
2019-04-01T14:10:07.018Z,47.31
2019-04-01T14:12:33.774Z,47.03
2019-04-01T14:15:00.508Z,46.92
2019-04-01T14:17:27.265Z,46.24
2019-04-01T14:19:54.063Z,46.99
2019-04-01T14:22:20.834Z,46.09
2019-04-01T14:24:47.562Z,46.87
2019-04-01T14:27:14.385Z,47.69
2019-04-01T14:29:41.130Z,46.94
2019-04-01T14:32:07.882Z,47.11
2019-04-01T14:34:35.445Z,47.06
2019-04-01T14:37:01.391Z,46.32
2019-04-01T14:39:28.128Z,46.53
2019-04-01T14:41:54.928Z,47.02
2019-04-01T14:44:21.647Z,45.94
2019-04-01T14:46:48.399Z,45.79
2019-04-01T14:49:15.134Z,45.93
2019-04-01T14:51:42.606Z,43.91
2019-04-01T14:54:08.622Z,45.31
2019-04-01T14:56:35.531Z,44.17
2019-04-01T14:59:02.271Z,44.85
2019-04-01T15:01:30.185Z,43.28
2019-04-01T15:03:55.746Z,45.45
2019-04-01T15:06:22.507Z,43.84
2019-04-01T15:08:49.249Z,45.58
2019-04-01T15:11:16.036Z,44.56
2019-04-01T15:13:42.782Z,44.56
2019-04-01T15:16:09.546Z,44.67
2019-04-01T15:18:36.286Z,45.06
2019-04-01T15:21:03.063Z,45.57
2019-04-01T15:23:29.773Z,45.70
2019-04-01T15:28:22.872Z,45.10
2019-04-01T15:30:49.606Z,44.52
2019-04-01T15:33:16.355Z,45.29
2019-04-01T15:35:43.162Z,45.54
2019-04-01T15:38:09.893Z,45.46
2019-04-01T15:40:36.574Z,44.86
2019-04-01T15:43:03.334Z,43.86
2019-04-01T15:45:31.408Z,45.49
2019-04-01T15:47:56.854Z,44.50
2019-04-01T15:50:28.945Z,45.91
2019-04-01T15:52:50.340Z,46.66
2019-04-01T15:55:17.125Z,45.38
2019-04-01T15:57:43.968Z,45.95
2019-04-01T16:00:10.726Z,45.22
2019-04-01T16:02:37.482Z,46.04
2019-04-01T16:05:05.910Z,46.73
2019-04-01T16:07:31.297Z,46.10
2019-04-01T16:09:58.035Z,46.89
2019-04-01T16:12:24.835Z,46.16
2019-04-01T16:14:51.554Z,45.81
2019-04-01T16:17:18.342Z,45.74
2019-04-01T16:19:45.084Z,46.91
2019-04-01T16:22:12.156Z,46.15
2019-04-01T16:24:38.873Z,46.47
2019-04-01T16:27:05.622Z,47.50
2019-04-01T16:29:32.374Z,47.53
2019-04-01T16:31:59.128Z,47.19
2019-04-01T16:34:25.947Z,47.11
2019-04-01T16:36:52.746Z,47.17
2019-04-01T16:39:19.475Z,47.24
2019-04-01T16:41:49.943Z,47.42
2019-04-01T16:44:12.970Z,48.42
2019-04-01T16:46:40.246Z,48.18
2019-04-01T16:49:07.460Z,48.65
2019-04-01T16:51:33.426Z,48.02
2019-04-01T16:54:00.183Z,48.99
2019-04-01T16:56:26.935Z,49.54
2019-04-01T16:58:53.694Z,49.77
2019-04-01T17:01:20.455Z,49.23
2019-04-01T17:03:47.233Z,50.23
2019-04-01T17:06:13.942Z,49.13
2019-04-01T17:08:40.707Z,50.06
2019-04-01T17:11:07.459Z,50.44
2019-04-01T17:13:34.191Z,50.36
2019-04-01T17:16:01.637Z,51.18
2019-04-01T17:18:27.686Z,51.84
2019-04-01T17:20:54.437Z,51.76
2019-04-01T17:23:21.205Z,52.09
2019-04-01T17:25:47.958Z,52.00
2019-04-01T17:28:14.703Z,52.41
2019-04-01T17:30:41.428Z,51.55
2019-04-01T17:33:08.685Z,52.61
2019-04-01T17:35:34.918Z,51.74
2019-04-01T17:38:01.659Z,53.00
2019-04-01T17:40:28.405Z,53.28
2019-04-01T17:42:55.207Z,53.45
2019-04-01T17:45:29.337Z,53.57
2019-04-01T17:47:56.079Z,53.32
2019-04-01T17:50:22.830Z,53.84
2019-04-01T17:52:49.638Z,54.14
2019-04-01T17:55:17.243Z,53.36
2019-04-01T17:57:43.133Z,53.14
2019-04-01T18:00:10.608Z,53.25
2019-04-01T18:02:37.350Z,52.92
2019-04-01T18:05:04.188Z,52.89
2019-04-01T18:07:30.924Z,53.96
2019-04-01T18:09:57.650Z,53.49
2019-04-01T18:12:24.402Z,54.51
2019-04-01T18:14:51.155Z,53.46
2019-04-01T18:17:18.655Z,54.14
2019-04-01T18:19:44.729Z,53.99
2019-04-01T18:22:12.503Z,54.00
2019-04-01T18:24:39.319Z,52.69
2019-04-01T18:27:06.165Z,52.38
2019-04-01T18:29:32.989Z,53.22
2019-04-01T18:31:59.784Z,53.77
2019-04-01T18:34:27.944Z,53.96
2019-04-01T18:36:53.336Z,54.60
2019-04-01T18:39:20.076Z,54.08
2019-04-01T18:41:46.842Z,54.55
2019-04-01T18:44:13.635Z,54.87
2019-04-01T18:46:40.385Z,53.80
2019-04-01T18:49:07.121Z,54.98
2019-04-01T18:51:36.453Z,54.56
2019-04-01T18:54:00.614Z,55.39
2019-04-01T18:56:28.229Z,56.14
2019-04-01T18:58:54.411Z,56.72
2019-04-01T19:01:20.909Z,57.41
2019-04-01T19:03:47.656Z,57.23
2019-04-01T19:06:14.427Z,56.86
2019-04-01T19:08:41.146Z,56.63
2019-04-01T19:11:07.910Z,57.49
2019-04-01T19:13:34.634Z,56.19
2019-04-01T19:16:03.373Z,57.23
2019-04-01T19:18:28.142Z,57.40
2019-04-01T19:20:56.408Z,57.01
2019-04-01T19:23:21.686Z,57.70
2019-04-01T19:25:48.444Z,58.09
2019-04-01T19:28:15.174Z,57.36
2019-04-01T19:30:43.150Z,58.04
2019-04-01T19:33:09.058Z,57.59
2019-04-01T19:35:35.397Z,57.48
2019-04-01T19:38:02.123Z,57.25
2019-04-01T19:40:28.878Z,57.84
2019-04-01T19:42:55.612Z,58.73
2019-04-01T19:45:22.359Z,58.41
2019-04-01T19:47:49.106Z,58.89
2019-04-01T19:50:18.316Z,58.65
2019-04-01T19:52:44.310Z,58.54
2019-04-01T19:55:09.376Z,58.43
2019-04-01T19:57:36.146Z,58.40
2019-04-01T20:00:03.364Z,59.20
2019-04-01T20:02:30.113Z,60.29
2019-04-01T20:04:56.842Z,59.15
2019-04-01T20:07:23.643Z,58.16
2019-04-01T20:09:50.381Z,58.01
2019-04-01T20:12:17.127Z,57.48
2019-04-01T20:14:43.866Z,58.00
2019-04-01T20:17:10.614Z,58.26
2019-04-01T20:19:37.354Z,57.93
2019-04-01T20:22:04.294Z,58.60
2019-04-01T20:24:31.013Z,58.50
2019-04-01T20:26:57.769Z,58.76
2019-04-01T20:29:24.510Z,59.39
2019-04-01T20:31:51.250Z,59.21
2019-04-01T20:34:19.796Z,59.04
2019-04-01T20:36:44.821Z,59.00
2019-04-01T20:39:11.572Z,59.08
2019-04-01T20:41:38.298Z,59.59
2019-04-01T20:44:05.173Z,58.75
2019-04-01T20:46:31.923Z,59.21
2019-04-01T20:48:58.659Z,59.93
2019-04-01T20:51:26.121Z,60.38
2019-04-01T20:53:52.127Z,59.76
2019-04-01T20:56:20.141Z,60.87
2019-04-01T20:58:45.594Z,61.19
2019-04-01T21:01:12.326Z,61.85
2019-04-01T21:03:39.071Z,62.41
2019-04-01T21:06:05.793Z,62.52
2019-04-01T21:08:32.539Z,62.51
2019-04-01T21:10:59.265Z,61.47
2019-04-01T21:13:26.021Z,60.84
2019-04-01T21:15:52.754Z,61.37
2019-04-01T21:18:20.056Z,60.84
2019-04-01T21:20:46.245Z,61.28
2019-04-01T21:23:12.985Z,61.09
2019-04-01T21:25:39.719Z,60.55
2019-04-01T21:28:06.463Z,60.62
2019-04-01T21:30:33.190Z,60.70
2019-04-01T21:32:59.961Z,60.67
2019-04-01T21:35:26.687Z,60.86
2019-04-01T21:37:53.435Z,61.16
2019-04-01T21:40:20.254Z,62.20
2019-04-01T21:42:47.013Z,61.45
2019-04-01T21:45:13.738Z,62.28
2019-04-01T21:47:41.220Z,61.86
2019-04-01T21:50:07.226Z,62.31
2019-04-01T21:52:33.980Z,62.83
2019-04-01T21:55:00.698Z,62.27
2019-04-01T21:57:27.443Z,63.48
2019-04-01T21:59:54.175Z,63.63
2019-04-01T22:02:20.933Z,64.46
2019-04-01T22:04:47.662Z,65.78
2019-04-01T22:07:14.392Z,65.72
2019-04-01T22:09:41.130Z,65.12
2019-04-01T22:12:07.862Z,65.14
2019-04-01T22:14:34.610Z,64.33
2019-04-01T22:17:01.354Z,65.50
2019-04-01T22:19:28.098Z,64.63
2019-04-01T22:21:54.845Z,65.02
2019-04-01T22:24:21.589Z,64.39
2019-04-01T22:26:48.322Z,64.81
2019-04-01T22:29:15.059Z,64.59
2019-04-01T22:31:41.901Z,65.01
2019-04-01T22:34:09.223Z,65.64
2019-04-01T22:36:35.374Z,65.68
2019-04-01T22:39:02.135Z,64.92
2019-04-01T22:41:29.369Z,65.91
2019-04-01T22:43:55.618Z,65.41
2019-04-01T22:46:22.439Z,66.12
2019-04-01T22:48:49.209Z,66.91
2019-04-01T22:51:15.943Z,67.57
2019-04-01T22:53:42.690Z,67.21
2019-04-01T22:56:09.421Z,67.04
2019-04-01T22:58:36.162Z,67.27
2019-04-01T23:01:02.913Z,66.26
2019-04-01T23:03:29.651Z,67.55
2019-04-01T23:05:56.394Z,67.05
2019-04-01T23:08:23.136Z,66.71
2019-04-01T23:10:50.081Z,67.29
2019-04-01T23:13:16.814Z,68.55
2019-04-01T23:15:44.166Z,69.25
2019-04-01T23:18:10.308Z,69.80
2019-04-01T23:20:37.076Z,69.89
2019-04-01T23:23:03.798Z,68.80
2019-04-01T23:25:30.531Z,69.70
2019-04-01T23:27:57.360Z,68.66
2019-04-01T23:30:24.096Z,68.39
2019-04-01T23:32:50.816Z,68.82
2019-04-01T23:35:17.587Z,68.95
2019-04-01T23:37:44.314Z,68.14
2019-04-01T23:40:11.070Z,68.86
2019-04-01T23:42:38.218Z,69.30
2019-04-01T23:45:05.014Z,69.08
2019-04-01T23:47:31.746Z,68.12
2019-04-01T23:49:58.486Z,69.01
2019-04-01T23:52:25.220Z,68.65
2019-04-01T23:54:51.983Z,68.74
2019-04-01T23:57:18.726Z,68.65
2019-04-01T23:59:45.485Z,69.18
